Time;durP1;ratioP1;P1;durP2;ratioP2;P2;SDS_P1;SDS_P2;PMS_P1;PMS_P2;Temp;Humidity;BMP_temperature;BMP_pressure;BME280_temperature;BME280_humidity;BME280_pressure;Samples;Min_cycle;Max_cycle;Signal;HPM_P1;HPM_P2
2021/03/20 00:01:57;;;;;;;12.05;7.10;;;5.60;77.80;;;6.07;61.90;101733.56;5036223;28;20049;-80
2021/03/20 00:04:23;;;;;;;14.23;7.70;;;5.60;77.80;;;6.04;61.99;101741.94;5035994;28;20068;-80
2021/03/20 00:06:55;;;;;;;10.45;6.60;;;5.60;78.10;;;6.05;62.13;101735.53;5036227;28;20049;-80
2021/03/20 00:09:23;;;;;;;;;;;5.60;78.10;;;6.07;61.56;101739.84;5036911;28;20057;-79
2021/03/20 00:11:50;;;;;;;9.95;6.78;;;5.60;77.30;;;6.04;61.90;101740.09;5035884;28;19925;-80
2021/03/20 00:14:20;;;;;;;11.18;6.50;;;5.50;77.70;;;6.06;61.94;101743.53;5036549;28;20452;-79
2021/03/20 00:16:48;;;;;;;9.70;6.38;;;5.50;77.40;;;6.02;61.44;101752.88;5035193;28;20037;-79
2021/03/20 00:19:16;;;;;;;10.82;6.72;;;5.50;77.20;;;5.99;61.60;101752.25;5034509;28;20045;-80
2021/03/20 00:21:43;;;;;;;11.10;6.82;;;5.50;77.70;;;5.98;61.41;101753.25;5036291;28;20495;-79
2021/03/20 00:24:10;;;;;;;10.45;5.97;;;5.40;77.70;;;5.96;61.43;101756.06;5008205;28;20049;-79
2021/03/20 00:26:38;;;;;;;8.88;5.93;;;5.40;77.30;;;5.96;61.33;101752.50;5038143;28;20104;-79
2021/03/20 00:29:06;;;;;;;12.55;6.72;;;5.40;77.30;;;5.91;61.43;101760.94;5035985;28;20056;-80
2021/03/20 00:31:33;;;;;;;10.10;5.90;;;5.30;77.60;;;5.90;61.64;101752.97;5035226;28;20038;-80
2021/03/20 00:34:00;;;;;;;10.93;6.88;;;5.30;77.80;;;5.88;61.15;101762.06;5035752;28;20050;-80
2021/03/20 00:36:27;;;;;;;13.57;6.20;;;5.30;77.70;;;5.87;61.45;101760.34;5036290;28;20122;-80
2021/03/20 00:38:54;;;;;;;11.10;6.18;;;5.20;77.80;;;5.85;61.28;101762.31;5034752;28;20396;-80
2021/03/20 00:41:22;;;;;;;10.52;5.95;;;5.20;78.30;;;5.85;61.32;101762.31;5036141;28;20113;-80
2021/03/20 00:43:49;;;;;;;8.63;5.68;;;5.20;78.00;;;5.85;61.51;101765.00;5035651;28;20492;-80
2021/03/20 00:46:15;;;;;;;9.13;5.55;;;5.10;78.20;;;5.81;61.13;101759.97;5035185;28;20506;-80
2021/03/20 00:48:43;;;;;;;7.93;5.00;;;5.10;78.20;;;5.80;60.59;101769.06;5034856;28;20053;-80
2021/03/20 00:51:10;;;;;;;8.52;4.75;;;5.10;77.20;;;5.78;60.44;101769.16;5035708;28;20057;-80
2021/03/20 00:53:38;;;;;;;7.75;4.22;;;5.00;77.30;;;5.76;59.98;101767.59;5033516;28;20046;-80
2021/03/20 00:56:06;;;;;;;19.70;4.97;;;4.90;76.60;;;5.75;59.42;101771.25;5034719;28;20041;-80
2021/03/20 00:58:36;;;;;;;7.45;4.03;;;4.90;76.10;;;5.62;59.68;101776.78;5035001;28;20049;-79
2021/03/20 01:01:07;;;;;;;8.03;4.20;;;4.80;76.60;;;5.63;59.08;101778.50;5035587;28;20041;-79
2021/03/20 01:03:37;;;;;;;7.85;4.20;;;4.80;75.70;;;5.59;58.56;101785.13;5034351;28;20053;-79
2021/03/20 01:06:06;;;;;;;7.72;3.92;;;4.80;75.80;;;5.54;59.02;101790.03;5034342;28;20049;-79
2021/03/20 01:08:33;;;;;;;6.60;3.80;;;4.70;76.00;;;5.54;58.09;101796.31;5034764;28;20061;-79
2021/03/20 01:11:00;;;;;;;5.93;3.83;;;4.60;74.80;;;5.53;57.76;101799.13;5034792;28;20594;-79
2021/03/20 01:13:27;;;;;;;7.70;3.75;;;4.60;74.90;;;5.51;57.71;101798.38;5034715;28;20048;-79
2021/03/20 01:15:54;;;;;;;7.97;3.38;;;4.60;74.90;;;5.45;57.80;101794.31;5034625;28;20503;-80
2021/03/20 01:18:21;;;;;;;7.05;3.30;;;4.50;75.10;;;5.38;57.62;101796.63;5033730;28;20045;-79
2021/03/20 01:20:49;;;;;;;7.10;3.08;;;4.50;74.50;;;5.41;57.24;101806.34;5034679;28;20049;-79
2021/03/20 01:23:16;;;;;;;9.50;3.60;;;4.50;74.50;;;5.35;56.87;101802.28;5034457;28;20060;-80
2021/03/20 01:25:43;;;;;;;5.70;3.53;;;4.40;74.40;;;5.33;56.51;101797.94;5034119;28;20041;-79
2021/03/20 01:28:11;;;;;;;5.97;3.20;;;4.40;73.80;;;5.35;56.64;101801.38;5035254;28;20045;-79
2021/03/20 01:30:43;;;;;;;5.93;3.17;;;4.40;73.80;;;5.28;56.79;101811.81;5034752;28;20041;-79
2021/03/20 01:33:11;;;;;;;7.40;3.38;;;4.30;74.50;;;5.29;56.78;101813.53;5034086;28;20045;-79
2021/03/20 01:35:38;;;;;;;5.63;3.25;;;4.30;74.20;;;5.30;56.77;101815.25;5034422;28;20077;-79
2021/03/20 01:38:05;;;;;;;5.90;3.40;;;4.40;74.00;;;5.23;56.65;101814.00;5035034;28;20057;-79
2021/03/20 01:40:38;;;;;;;6.47;3.10;;;4.30;73.70;;;5.17;56.68;101820.72;5034648;28;20077;-79
2021/03/20 01:43:06;;;;;;;12.18;4.85;;;4.20;74.10;;;5.13;57.34;101811.16;5034746;28;20526;-79
2021/03/20 01:45:36;;;;;;;5.60;3.20;;;4.10;74.60;;;5.07;57.19;101807.09;5035300;28;20167;-80
2021/03/20 01:48:11;;;;;;;7.93;3.40;;;4.10;74.70;;;5.12;57.34;101812.13;5034013;28;20052;-79
2021/03/20 01:50:45;;;;;;;5.35;2.88;;;4.10;75.10;;;5.08;56.77;101798.03;5034187;28;20053;-80
2021/03/20 01:53:28;;;;;;;6.75;3.08;;;4.00;74.10;;;5.05;56.35;101798.25;5034601;28;20058;-79
2021/03/20 01:55:55;;;;;;;9.15;3.00;;;4.00;73.90;;;5.04;55.18;101793.81;5033308;28;20045;-79
2021/03/20 01:58:23;;;;;;;6.35;2.53;;;4.00;72.50;;;4.99;55.02;101792.44;5032599;28;20048;-79
2021/03/20 02:00:52;;;;;;;6.18;2.72;;;3.90;72.10;;;5.00;55.20;101786.09;5042048;28;20660;-79
2021/03/20 02:03:21;;;;;;;5.18;2.63;;;3.90;72.60;;;4.88;55.32;101798.66;5033838;28;20053;-79
2021/03/20 02:05:48;;;;;;;9.15;3.00;;;3.80;72.80;;;4.81;56.12;101800.94;5033886;28;20045;-80
2021/03/20 02:08:18;;;;;;;6.57;3.08;;;3.70;73.90;;;4.70;56.30;101796.38;5033763;28;20052;-79
2021/03/20 02:10:47;;;;;;;7.78;4.40;;;3.60;74.40;;;4.67;57.21;101790.34;5033842;28;20076;-79
2021/03/20 02:13:34;;;;;;;5.03;2.83;;;3.50;75.50;;;4.60;56.99;101795.34;5033766;28;20046;-79
2021/03/20 02:16:13;;;;;;;5.90;2.72;;;3.50;75.60;;;4.56;57.58;101793.00;5034193;28;20797;-80
2021/03/20 02:18:47;;;;;;;9.43;2.90;;;3.30;76.10;;;4.48;57.68;101788.16;5033510;28;20041;-79
2021/03/20 02:21:23;;;;;;;6.57;3.20;;;3.30;76.90;;;4.42;57.49;101785.94;5033576;28;20084;-79
2021/03/20 02:24:44;;;;;;;6.22;2.95;;;3.20;76.50;;;4.42;57.66;101785.94;5033252;28;20047;-79
2021/03/20 02:28:01;;;;;;;7.22;3.10;;;3.20;76.00;;;4.38;57.38;101787.09;5033125;28;20041;-79
2021/03/20 02:31:20;;;;;;;3.88;2.38;;;3.20;75.60;;;4.38;56.36;101796.06;5033568;28;20033;-79
2021/03/20 02:34:02;;;;;;;6.75;2.75;;;3.20;75.00;;;4.36;56.42;101791.75;5033736;28;20049;-79
2021/03/20 02:36:36;;;;;;;7.30;2.88;;;3.20;75.10;;;4.32;56.41;101791.13;5033235;28;20049;-79
2021/03/20 02:39:12;;;;;;;5.15;2.55;;;3.20;74.80;;;4.34;56.13;101788.31;5034417;28;20052;-79
2021/03/20 02:41:48;;;;;;;5.45;2.70;;;3.20;74.70;;;4.26;57.31;101781.66;5033286;28;20045;-79
2021/03/20 02:44:21;;;;;;;5.85;3.10;;;3.10;75.90;;;4.23;57.33;101781.88;5033342;28;20514;-79
2021/03/20 02:46:57;;;;;;;6.55;2.60;;;3.10;76.10;;;4.15;58.02;101788.78;5024605;28;20045;-79
2021/03/20 02:49:35;;;;;;;7.55;2.90;;;3.00;76.70;;;4.07;57.88;101792.03;5034592;28;20045;-79
2021/03/20 02:52:09;;;;;;;5.90;2.70;;;2.90;76.80;;;4.07;57.81;101797.44;5032765;28;20045;-79
2021/03/20 02:54:43;;;;;;;5.72;2.75;;;2.90;76.60;;;4.05;57.41;101799.38;5033106;28;20506;-79
2021/03/20 02:57:15;;;;;;;7.22;2.83;;;2.80;76.30;;;4.04;56.51;101797.69;5033584;28;20123;-79
2021/03/20 02:59:48;;;;;;;5.07;2.60;;;2.80;75.60;;;4.03;56.61;101802.19;5033463;28;20053;-79
2021/03/20 03:02:17;;;;;;;4.55;2.47;;;2.80;75.80;;;4.04;56.62;101803.91;5030986;28;20045;-79
2021/03/20 03:04:51;;;;;;;6.60;3.38;;;2.80;75.10;;;4.08;56.82;101800.03;5033269;28;20088;-79
2021/03/20 03:07:24;;;;;;;6.88;3.03;;;2.80;75.40;;;4.12;55.87;101795.28;5032244;28;20049;-79
2021/03/20 03:09:56;;;;;;;6.22;2.88;;;2.90;74.80;;;4.05;55.92;101796.69;5034004;28;20110;-79
2021/03/20 03:12:30;;;;;;;5.88;2.97;;;2.80;74.80;;;4.09;55.43;101795.50;5037666;28;20045;-79
2021/03/20 03:15:02;;;;;;;9.18;2.83;;;2.90;74.10;;;4.07;55.13;101794.75;5038016;28;20391;-79
2021/03/20 03:17:32;;;;;;;5.03;2.45;;;2.90;73.80;;;4.07;55.32;101792.94;5009562;28;21086;-79
2021/03/20 03:20:06;;;;;;;4.55;2.40;;;2.90;73.60;;;4.07;55.14;101792.03;5034278;28;20514;-79
2021/03/20 03:22:40;;;;;;;4.93;2.35;;;2.90;73.70;;;4.07;55.05;101787.53;5036120;28;20087;-79
2021/03/20 03:25:12;;;;;;;4.45;2.13;;;2.90;72.90;;;4.10;53.81;101789.13;5036093;28;20033;-79
2021/03/20 03:27:43;;;;;;;7.55;2.50;;;2.90;72.00;;;4.07;54.21;101794.75;5033909;28;20073;-79
2021/03/20 03:30:15;;;;;;;7.13;2.83;;;2.80;72.40;;;4.09;54.23;101792.78;5037275;28;20046;-79
2021/03/20 03:32:47;;;;;;;5.78;2.90;;;2.90;72.10;;;4.01;54.92;101787.09;5029109;28;20060;-79
2021/03/20 03:35:21;;;;;;;5.18;2.53;;;2.80;73.30;;;3.94;55.06;101797.47;5037015;28;20049;-79
2021/03/20 03:37:58;;;;;;;4.90;2.70;;;2.80;73.10;;;3.96;54.37;101792.84;4999223;28;20061;-79
2021/03/20 03:40:33;;;;;;;6.28;3.15;;;2.70;73.00;;;3.91;55.15;101798.53;5029070;28;20128;-79
2021/03/20 03:43:00;;;;;;;7.22;2.80;;;2.70;73.30;;;3.91;54.92;101803.94;5035736;28;20045;-79
2021/03/20 03:45:27;;;;;;;6.40;2.53;;;2.70;73.60;;;3.86;55.03;101800.69;5036324;28;20042;-79
2021/03/20 03:47:55;;;;;;;5.90;2.58;;;2.70;73.10;;;3.89;54.37;101805.88;5037466;28;20132;-79
2021/03/20 03:50:28;;;;;;;5.90;2.78;;;2.70;73.10;;;3.88;55.43;101809.56;5036241;28;20046;-79
2021/03/20 03:52:54;;;;;;;5.50;2.45;;;2.70;73.40;;;3.85;54.75;101806.22;5038576;28;20049;-79
2021/03/20 03:55:22;;;;;;;6.03;2.50;;;2.70;73.20;;;3.77;54.93;101814.84;5036892;28;20061;-79
2021/03/20 03:58:11;;;;;;;7.03;3.00;;;2.60;73.40;;;3.79;55.45;101823.66;5035646;28;20053;-79
2021/03/20 04:00:43;;;;;;;5.45;2.88;;;2.60;73.70;;;3.76;54.77;101821.16;5035801;28;20049;-80
2021/03/20 04:03:42;;;;;;;5.20;2.47;;;2.60;73.50;;;3.81;54.58;101827.09;4993191;28;20141;-79
2021/03/20 04:06:29;;;;;;;8.75;2.70;;;2.60;73.00;;;3.81;54.54;101832.50;5026782;28;20060;-79
2021/03/20 04:09:08;;;;;;;8.82;2.95;;;2.60;73.20;;;3.63;55.29;101834.63;5034355;28;20123;-79
2021/03/20 04:11:42;;;;;;;6.20;2.58;;;2.50;73.90;;;3.61;55.36;101833.00;5035363;28;20040;-79
2021/03/20 04:14:16;;;;;;;7.22;3.30;;;2.40;74.30;;;3.70;55.25;101816.22;5035965;28;20034;-79
2021/03/20 04:16:50;;;;;;;5.93;2.75;;;2.50;73.70;;;3.60;54.97;101815.13;5036426;28;20038;-79
2021/03/20 04:19:27;;;;;;;4.95;2.50;;;2.40;73.80;;;3.65;54.64;101818.38;5036397;28;20459;-79
2021/03/20 04:21:59;;;;;;;12.23;3.42;;;2.50;73.60;;;3.55;55.34;101828.06;5034956;28;20045;-79
2021/03/20 04:24:37;;;;;;;6.03;3.03;;;2.40;73.50;;;3.47;55.29;101824.06;5035896;28;20091;-79
2021/03/20 04:27:07;;;;;;;8.40;2.88;;;2.40;73.90;;;3.51;55.69;101820.19;5036453;28;20049;-79
2021/03/20 04:29:40;;;;;;;7.28;2.72;;;2.30;74.20;;;3.42;56.00;101814.59;5035431;28;20079;-79
2021/03/20 04:32:14;;;;;;;7.88;2.95;;;2.30;74.50;;;3.50;55.34;101821.19;5034549;28;20052;-79
2021/03/20 04:34:46;;;;;;;6.75;2.83;;;2.30;73.90;;;3.40;55.83;101817.38;5035301;28;20045;-79
2021/03/20 04:37:20;;;;;;;5.50;2.85;;;2.20;74.20;;;3.40;55.42;101822.75;5035995;28;20045;-79
2021/03/20 04:39:51;;;;;;;6.70;3.00;;;2.20;74.10;;;3.36;55.49;101826.63;5034525;28;20045;-79
2021/03/20 04:42:25;;;;;;;6.55;2.75;;;2.20;74.60;;;3.37;55.09;101825.69;5035744;28;20045;-79
2021/03/20 04:44:53;;;;;;;7.28;3.08;;;2.20;74.10;;;3.30;55.92;101827.06;5035180;28;20261;-79
2021/03/20 04:47:25;;;;;;;6.07;3.05;;;2.10;74.60;;;3.21;56.09;101825.00;5035456;28;20069;-79
2021/03/20 04:49:56;;;;;;;5.55;2.83;;;2.00;75.30;;;3.12;56.57;101819.28;5036362;28;20163;-79
2021/03/20 04:52:30;;;;;;;7.15;2.75;;;2.00;75.40;;;3.07;56.87;101818.72;5036134;28;20049;-79
2021/03/20 04:54:58;;;;;;;7.80;2.97;;;1.90;75.90;;;3.05;56.99;101825.19;5036235;28;20116;-79
2021/03/20 04:57:32;;;;;;;6.72;2.95;;;1.90;75.60;;;3.01;57.58;101824.53;5034075;28;20096;-79
2021/03/20 05:00:09;;;;;;;8.35;2.97;;;1.90;76.80;;;3.03;58.15;101811.84;5035717;28;20737;-79
2021/03/20 05:02:43;;;;;;;9.65;2.90;;;1.80;77.70;;;2.92;58.01;101822.44;5034034;28;20045;-79
2021/03/20 05:05:23;;;;;;;10.30;3.13;;;1.70;77.40;;;2.91;58.22;101818.03;5034795;28;20080;-79
2021/03/20 05:07:52;;;;;;;8.40;2.80;;;1.70;77.80;;;2.96;57.79;101815.91;5034474;28;20052;-79
2021/03/20 05:10:30;;;;;;;6.88;3.00;;;1.70;77.70;;;3.00;58.24;101816.56;5034271;28;20046;-78
2021/03/20 05:12:59;;;;;;;6.68;2.63;;;1.60;78.20;;;2.92;58.85;101825.16;5035387;28;20076;-81
2021/03/20 05:15:30;;;;;;;8.70;3.20;;;1.60;78.60;;;2.88;57.93;101823.63;5035778;28;20077;-80
2021/03/20 05:17:58;;;;;;;6.93;2.90;;;1.50;78.50;;;2.81;59.03;101827.69;5041898;28;20045;-80
2021/03/20 05:20:25;;;;;;;5.72;2.75;;;1.50;79.00;;;2.72;58.65;101821.06;5034246;28;20110;-80
2021/03/20 05:22:53;;;;;;;8.43;3.00;;;1.50;79.00;;;2.74;59.13;101820.03;5036045;28;20045;-80
2021/03/20 05:25:24;;;;;;;6.78;3.20;;;1.50;79.40;;;2.63;59.63;101829.78;5037640;28;20049;-80
2021/03/20 05:27:53;;;;;;;11.18;3.03;;;1.40;79.20;;;2.61;59.51;101827.19;5034050;28;20053;-80
2021/03/20 05:30:22;;;;;;;9.23;3.83;;;1.40;79.30;;;2.69;59.67;101830.22;5036488;28;20112;-81
2021/03/20 05:32:49;;;;;;;6.38;3.08;;;1.40;79.70;;;2.63;59.87;101829.78;5033886;28;20058;-81
2021/03/20 05:35:25;;;;;;;6.68;3.10;;;1.40;79.50;;;2.63;59.66;101830.63;5036149;28;20045;-80
2021/03/20 05:37:53;;;;;;;8.30;3.03;;;1.30;79.60;;;2.64;59.16;101840.41;5035321;28;20516;-80
2021/03/20 05:40:26;;;;;;;6.25;2.80;;;1.40;79.30;;;2.66;59.44;101841.16;5033917;28;20523;-81
2021/03/20 05:43:31;;;;;;;8.13;3.05;;;1.40;79.60;;;2.71;59.73;101847.09;5035703;28;20619;-81
2021/03/20 05:46:21;;;;;;;8.15;2.83;;;1.40;79.80;;;2.74;59.14;101846.91;5035482;28;20469;-80
2021/03/20 05:49:09;;;;;;;7.28;3.35;;;1.50;79.20;;;2.70;59.32;101848.09;5034754;28;20037;-80
2021/03/20 05:51:58;;;;;;;6.40;3.08;;;1.50;78.90;;;2.65;59.16;101850.19;5034430;28;20775;-80
2021/03/20 05:55:23;;;;;;;7.28;3.05;;;1.50;79.00;;;2.64;58.74;101851.16;5034657;28;20053;-80
2021/03/20 05:58:03;;;;;;;7.72;3.13;;;1.60;78.20;;;2.69;58.85;101851.72;4968256;28;20050;-80
2021/03/20 06:00:45;;;;;;;6.30;2.90;;;1.60;78.20;;;2.76;59.00;101845.94;5034670;28;20048;-81
2021/03/20 06:03:46;;;;;;;;;;;1.60;78.40;;;2.69;59.01;101857.09;5049833;28;20053;-80
2021/03/20 06:06:34;;;;;;;10.33;3.07;;;1.60;77.90;;;2.60;58.91;101860.38;5030360;28;20367;-81
2021/03/20 06:09:19;;;;;;;7.78;3.38;;;1.60;77.80;;;2.58;59.43;101859.63;5033969;28;20034;-82
2021/03/20 06:12:12;;;;;;;7.25;3.10;;;1.50;78.30;;;2.59;59.22;101855.09;5034454;28;20045;-81
2021/03/20 06:15:17;;;;;;;7.68;3.30;;;1.50;78.30;;;2.69;59.02;101846.34;5034470;28;20045;-81
2021/03/20 06:18:24;;;;;;;11.77;3.63;;;1.60;78.70;;;2.73;59.67;101847.84;5034359;28;20057;-81
2021/03/20 06:20:58;;;;;;;9.20;3.65;;;1.60;78.80;;;2.70;59.25;101857.94;5021522;28;20065;-81
2021/03/20 06:24:09;;;;;;;8.60;3.40;;;1.70;78.10;;;2.64;58.23;101851.16;5016362;28;20041;-80
2021/03/20 06:26:38;;;;;;;5.93;3.22;;;1.70;77.70;;;2.64;58.77;101861.91;5033017;28;20051;-80
2021/03/20 06:29:17;;;;;;;6.43;3.13;;;1.70;77.20;;;2.69;59.28;101867.84;5026967;28;20698;-81
2021/03/20 06:31:47;;;;;;;9.80;4.10;;;1.70;77.60;;;2.67;58.87;101868.91;5032737;28;20422;-81
2021/03/20 06:34:19;;;;;;;11.70;3.80;;;1.80;77.50;;;2.80;58.81;101871.63;5033444;28;20033;-81
2021/03/20 06:36:52;;;;;;;13.32;4.07;;;1.90;77.00;;;2.87;59.06;101872.97;5033564;28;20406;-81
2021/03/20 06:39:28;;;;;;;9.35;4.00;;;1.90;77.20;;;2.88;58.81;101874.72;5006366;28;20503;-80
2021/03/20 06:42:00;;;;;;;9.43;3.80;;;2.00;76.60;;;2.89;58.67;101871.94;5025156;28;20457;-80
2021/03/20 06:44:39;;;;;;;8.90;3.72;;;2.00;76.50;;;2.89;58.64;101882.69;5032917;28;20049;-80
2021/03/20 06:47:15;;;;;;;7.68;3.30;;;2.10;76.70;;;2.88;59.16;101886.31;5036912;28;20042;-80
2021/03/20 06:49:47;;;;;;;8.32;3.65;;;2.10;76.50;;;2.93;58.12;101891.38;5038495;28;20053;-81
2021/03/20 06:52:20;;;;;;;8.15;3.78;;;2.30;75.80;;;2.97;58.39;101902.81;5037250;28;20057;-80
2021/03/20 06:54:56;;;;;;;8.80;3.90;;;2.40;75.50;;;2.91;59.40;101896.00;5036665;28;20045;-80
2021/03/20 06:57:22;;;;;;;7.57;3.38;;;2.40;76.00;;;3.01;58.62;101893.56;5037960;28;20045;-80
2021/03/20 06:59:53;;;;;;;8.60;3.65;;;2.50;75.80;;;3.06;58.21;101891.44;5038213;28;20075;-80
2021/03/20 07:02:31;;;;;;;9.67;3.53;;;2.50;75.30;;;3.11;59.37;101895.56;5037836;28;20041;-81
2021/03/20 07:05:13;;;;;;;9.93;4.35;;;2.60;76.00;;;3.16;58.19;101897.97;5037004;28;20041;-81
2021/03/20 07:08:03;;;;;;;8.55;3.78;;;2.60;75.20;;;3.15;58.53;101900.75;5037135;28;20053;-80
2021/03/20 07:10:42;;;;;;;9.02;4.20;;;2.70;74.90;;;3.20;58.37;101899.47;5036060;28;20051;-79
2021/03/20 07:13:19;;;;;;;8.82;3.70;;;2.80;74.90;;;3.23;57.41;101903.78;5035675;28;20114;-79
2021/03/20 07:16:08;;;;;;;10.20;4.03;;;2.80;73.30;;;3.23;57.93;101907.31;5059999;28;20130;-79
2021/03/20 07:18:45;;;;;;;9.18;4.30;;;2.80;73.40;;;3.23;58.10;101909.16;5037315;28;20099;-79
2021/03/20 07:21:35;;;;;;;8.75;4.38;;;2.90;74.00;;;3.30;57.94;101921.22;5036237;28;20605;-80
2021/03/20 07:24:09;;;;;;;7.25;3.80;;;2.90;73.90;;;3.31;56.68;101922.94;5037125;28;20052;-79
2021/03/20 07:26:53;;;;;;;9.25;3.72;;;3.00;72.40;;;3.31;57.03;101923.81;5037868;28;20060;-80
2021/03/20 07:29:21;;;;;;;8.55;3.70;;;3.00;72.80;;;3.40;57.38;101916.09;5036834;28;20116;-80
2021/03/20 07:31:58;;;;;;;8.95;3.95;;;3.00;73.30;;;3.41;56.59;101916.00;5039350;28;20132;-79
2021/03/20 07:34:35;;;;;;;10.93;4.40;;;3.00;72.30;;;3.41;57.66;101918.69;5036871;28;20099;-79
2021/03/20 07:37:14;;;;;;;9.27;3.90;;;3.00;72.80;;;3.37;58.09;101917.19;5036581;28;20045;-79
2021/03/20 07:39:46;;;;;;;9.93;4.03;;;3.00;73.30;;;3.39;58.34;101914.34;5036135;28;20061;-79
2021/03/20 07:42:34;;;;;;;7.68;3.50;;;3.10;73.80;;;3.40;57.64;101919.63;5036407;28;20060;-79
2021/03/20 07:45:05;;;;;;;10.52;4.18;;;3.10;72.90;;;3.46;57.51;101923.75;5036097;28;20100;-79
2021/03/20 07:47:36;;;;;;;8.82;4.20;;;3.10;72.60;;;3.43;57.51;101927.53;5035829;28;20048;-79
2021/03/20 07:50:27;;;;;;;9.30;3.42;;;3.10;73.40;;;3.47;58.32;101926.34;5036792;28;20565;-79
2021/03/20 07:53:12;;;;;;;10.05;3.85;;;3.20;73.40;;;3.57;56.78;101928.41;5036021;28;20042;-79
2021/03/20 07:56:04;;;;;;;10.48;3.72;;;3.30;72.50;;;3.60;57.13;101930.88;5034885;28;20116;-79
2021/03/20 07:58:40;;;;;;;10.38;4.03;;;3.30;72.10;;;3.63;56.28;101930.69;5036745;28;20054;-79
2021/03/20 08:01:23;;;;;;;8.30;3.90;;;3.40;71.10;;;3.69;56.93;101938.34;5035930;28;20041;-79
2021/03/20 08:03:54;;;;;;;8.15;3.85;;;3.40;71.50;;;3.75;57.06;101943.31;5036668;28;20850;-79
2021/03/20 08:06:25;;;;;;;9.82;3.97;;;3.60;71.40;;;3.76;57.17;101933.41;5035940;28;20925;-79
2021/03/20 08:09:25;;;;;;;10.27;3.55;;;3.60;71.50;;;3.73;55.96;101945.22;5036107;28;20075;-79
2021/03/20 08:12:10;;;;;;;13.27;3.92;;;3.50;70.70;;;3.75;56.06;101951.41;5036264;28;20079;-79
2021/03/20 08:14:45;;;;;;;7.15;3.88;;;3.50;71.60;;;3.71;57.49;101947.16;5034952;28;20507;-79
2021/03/20 08:17:16;;;;;;;9.77;4.35;;;3.50;72.20;;;3.78;57.30;101958.38;5034311;28;20050;-79
2021/03/20 08:19:45;;;;;;;8.38;3.92;;;3.60;72.30;;;3.84;57.57;101956.13;5036089;28;20037;-79
2021/03/20 08:23:10;;;;;;;7.70;3.83;;;3.70;71.60;;;3.89;57.24;101961.22;5036123;28;20052;-79
2021/03/20 08:25:57;;;;;;;7.57;3.90;;;3.80;71.90;;;3.91;57.15;101957.44;5013263;28;20049;-79
2021/03/20 08:28:49;;;;;;;11.85;4.30;;;3.90;71.60;;;4.01;57.52;101959.50;5035040;28;20056;-81
2021/03/20 08:31:43;;;;;;;11.80;4.00;;;3.90;71.20;;;4.06;56.29;101957.34;5038093;28;20041;-83
2021/03/20 08:35:16;;;;;;;8.05;4.00;;;4.00;71.00;;;4.07;56.56;101959.06;5036909;28;20121;-81
2021/03/20 08:38:05;;;;;;;12.15;4.20;;;4.10;70.70;;;4.12;56.07;101951.53;4978496;28;20530;-80
2021/03/20 08:40:53;;;;;;;7.95;4.45;;;4.10;70.10;;;4.14;56.63;101960.38;5034614;28;20092;-82
2021/03/20 08:43:57;;;;;;;10.73;4.07;;;4.30;70.60;;;4.22;57.54;101952.59;5036118;28;20037;-80
2021/03/20 08:46:55;;;;;;;8.20;3.70;;;4.40;70.60;;;4.30;56.61;101952.06;5035130;28;20052;-80
2021/03/20 08:49:36;;;;;;;11.05;4.35;;;4.60;69.20;;;4.39;56.77;101961.34;5034537;28;20038;-80
2021/03/20 08:52:15;;;;;;;7.53;4.07;;;4.80;69.30;;;4.45;56.50;101960.91;5033864;28;20060;-78
2021/03/20 08:55:07;;;;;;;8.32;3.60;;;5.00;68.20;;;4.50;55.87;101961.44;5033677;28;20068;-80
2021/03/20 08:57:43;;;;;;;7.60;3.55;;;5.10;66.90;;;4.54;55.86;101962.09;4998365;28;20069;-79
2021/03/20 09:00:19;;;;;;;6.68;3.65;;;5.20;66.50;;;4.57;55.15;101960.03;5034541;28;20037;-79
2021/03/20 09:02:48;;;;;;;7.88;3.92;;;5.20;65.60;;;4.58;54.97;101961.75;5034852;28;20578;-80
2021/03/20 09:05:29;;;;;;;8.90;3.75;;;5.20;65.80;;;4.63;55.77;101965.00;5035510;28;20049;-80
2021/03/20 09:08:00;;;;;;;;;;;5.30;66.50;;;4.66;55.07;101951.28;5034688;28;20049;-80
2021/03/20 09:10:37;;;;;;;7.07;3.73;;;5.30;65.60;;;4.69;54.59;101952.91;5034374;28;19925;-79
2021/03/20 09:13:18;;;;;;;9.88;4.03;;;5.40;64.80;;;4.75;54.79;101962.38;5001997;28;20116;-79
2021/03/20 09:15:55;;;;;;;6.60;3.33;;;5.40;64.50;;;4.82;54.70;101963.66;5031684;28;20135;-79
2021/03/20 09:18:23;;;;;;;7.72;3.72;;;5.50;64.20;;;4.88;54.64;101963.22;5030555;28;20053;-80
2021/03/20 09:20:53;;;;;;;9.20;3.53;;;5.50;64.50;;;4.90;54.37;101959.41;5035090;28;20073;-80
2021/03/20 09:23:28;;;;;;;7.93;3.45;;;5.60;63.90;;;4.96;53.55;101955.41;5034051;28;20052;-80
2021/03/20 09:25:59;;;;;;;7.43;3.35;;;5.60;63.10;;;4.98;52.59;101950.75;5033723;28;20057;-80
2021/03/20 09:28:29;;;;;;;;;;;5.60;61.80;;;5.00;51.84;101947.97;5034956;28;20041;-82
2021/03/20 09:31:20;;;;;;;9.30;3.50;;;5.60;61.60;;;5.03;52.96;101947.75;5035869;28;20030;-80
2021/03/20 09:33:48;;;;;;;6.70;3.33;;;5.70;62.60;;;5.06;52.53;101944.81;5036853;28;20041;-81
2021/03/20 09:36:42;;;;;;;8.27;3.38;;;5.70;61.70;;;5.11;52.79;101952.56;5035785;28;20456;-83
2021/03/20 09:39:32;;;;;;;8.52;3.10;;;5.80;62.00;;;5.15;52.06;101949.53;5038259;28;20084;-80
2021/03/20 09:42:00;;;;;;;8.13;3.20;;;5.80;61.20;;;5.16;51.75;101948.56;5034906;28;20064;-81
2021/03/20 09:44:27;;;;;;;7.03;2.83;;;5.80;60.80;;;5.18;51.19;101951.13;5032743;28;20132;-80
2021/03/20 09:46:59;;;;;;;7.00;3.00;;;5.80;59.10;;;5.18;50.27;101948.41;5033415;28;20046;-80
2021/03/20 09:49:57;;;;;;;;;;;5.70;59.10;;;5.20;49.31;101951.91;5034021;28;20042;-79
2021/03/20 09:52:40;;;;;;;6.35;2.72;;;5.70;58.20;;;5.23;50.25;101948.94;5034173;28;20817;-80
2021/03/20 09:55:45;;;;;;;6.93;2.75;;;5.70;59.70;;;5.26;50.33;101943.34;5034984;28;20065;-80
2021/03/20 09:58:40;;;;;;;6.88;2.85;;;5.70;60.00;;;5.28;49.68;101944.06;5034242;28;20685;-80
2021/03/20 10:01:11;;;;;;;6.50;2.75;;;5.70;58.60;;;5.25;48.57;101939.78;5032678;28;20060;-79
2021/03/20 10:04:21;;;;;;;6.70;2.90;;;5.70;57.20;;;5.30;48.79;101934.03;5033635;28;20061;-79
2021/03/20 10:07:31;;;;;;;6.68;2.85;;;5.70;58.20;;;5.31;48.20;101922.22;5008186;28;20056;-79
2021/03/20 10:10:18;;;;;;;8.90;2.60;;;5.70;56.90;;;5.35;49.10;101918.34;5034887;28;20523;-79
2021/03/20 10:13:02;;;;;;;6.15;2.60;;;5.80;57.90;;;5.38;48.41;101920.78;5023453;28;20499;-79
2021/03/20 10:15:34;;;;;;;6.70;2.90;;;5.90;56.00;;;5.42;47.80;101919.59;5028588;28;20033;-78
2021/03/20 10:18:32;;;;;;;8.40;2.75;;;6.10;55.10;;;5.43;48.59;101918.63;5056155;28;20064;-78
2021/03/20 10:21:19;;;;;;;7.15;2.30;;;6.20;55.80;;;5.44;46.61;101912.22;5031975;28;20049;-78
2021/03/20 10:24:01;;;;;;;9.40;2.90;;;6.10;52.60;;;5.46;46.51;101902.19;5031164;28;20045;-78
2021/03/20 10:26:40;;;;;;;7.88;3.10;;;6.20;53.10;;;5.52;47.37;101905.38;5012405;28;20511;-78
2021/03/20 10:29:22;;;;;;;4.68;2.17;;;6.30;54.80;;;5.55;46.55;101905.16;5012314;28;20037;-78
2021/03/20 10:31:53;;;;;;;5.15;2.55;;;6.40;52.20;;;5.58;46.79;101904.91;5023829;28;20044;-78
2021/03/20 10:34:24;;;;;;;7.20;2.80;;;6.40;53.00;;;5.55;45.47;101905.16;5029938;28;20113;-78
2021/03/20 10:37:06;;;;;;;8.48;2.80;;;6.50;52.90;;;5.53;44.97;101893.63;5029740;28;20053;-78
2021/03/20 10:39:35;;;;;;;5.80;2.55;;;6.50;52.30;;;5.58;44.60;101895.00;5031106;28;20071;-78
2021/03/20 10:42:07;;;;;;;5.20;2.40;;;6.50;51.00;;;5.61;43.41;101904.69;5030325;28;20042;-78
2021/03/20 10:44:40;;;;;;;5.93;2.72;;;6.60;50.40;;;5.65;43.98;101903.47;5030441;28;20526;-78
2021/03/20 10:47:26;;;;;;;5.97;2.22;;;6.60;50.40;;;5.69;43.42;101896.84;5031770;28;20044;-78
2021/03/20 10:49:58;;;;;;;4.30;2.08;;;6.60;50.90;;;5.71;41.20;101889.47;5032246;28;20060;-80
2021/03/20 10:52:32;;;;;;;4.75;2.33;;;6.60;48.10;;;5.73;42.63;101882.16;5031739;28;20053;-79
2021/03/20 10:55:02;;;;;;;6.38;2.63;;;6.70;49.30;;;5.77;42.87;101886.31;5034091;28;20154;-79
2021/03/20 10:57:32;;;;;;;6.47;3.07;;;6.60;49.80;;;5.78;41.76;101888.03;5032575;28;20037;-79
2021/03/20 10:59:59;;;;;;;6.85;2.67;;;6.60;48.30;;;5.78;41.58;101882.63;5033962;28;20288;-79
2021/03/20 11:02:34;;;;;;;5.78;2.42;;;6.50;47.70;;;5.76;41.64;101884.59;5032871;28;20071;-79
2021/03/20 11:05:32;;;;;;;6.97;2.70;;;6.50;50.10;;;5.74;42.55;101889.25;5031284;28;20064;-79
2021/03/20 11:08:02;;;;;;;6.03;2.67;;;6.50;51.40;;;5.81;44.03;101895.91;5034285;28;20518;-79